createdAt,value
2019-04-21T00:03:15.157Z,13.03
2019-04-21T00:08:30.720Z,12.73
2019-04-21T00:13:22.590Z,12.85
2019-04-21T00:18:02.463Z,13.70
2019-04-21T00:23:13.147Z,13.62
2019-04-21T00:28:21.139Z,13.53
2019-04-21T00:32:58.819Z,13.03
2019-04-21T00:38:01.054Z,12.50
2019-04-21T00:42:58.855Z,12.15
2019-04-21T00:47:52.601Z,13.22
2019-04-21T00:53:19.622Z,13.35
2019-04-21T00:58:10.601Z,13.30
2019-04-21T01:03:04.911Z,13.85
2019-04-21T01:08:01.075Z,14.28
2019-04-21T01:12:54.709Z,14.47
2019-04-21T01:17:51.662Z,13.88
2019-04-21T01:22:26.165Z,14.83
2019-04-21T01:27:31.963Z,14.97
2019-04-21T01:32:37.403Z,15.25
2019-04-21T01:37:41.149Z,14.70
2019-04-21T01:42:26.799Z,15.58
2019-04-21T01:47:20.654Z,13.98
2019-04-21T01:52:34.403Z,14.45
2019-04-21T01:57:17.629Z,14.90
2019-04-21T02:02:17.176Z,14.47
2019-04-21T02:07:11.649Z,14.53
2019-04-21T02:12:10.586Z,13.88
2019-04-21T02:17:12.250Z,13.03
2019-04-21T02:21:51.977Z,13.58
2019-04-21T02:27:00.122Z,14.03
2019-04-21T02:32:01.921Z,13.55
2019-04-21T02:37:17.167Z,13.37
2019-04-21T02:41:55.815Z,13.70
2019-04-21T02:46:46.649Z,13.97
2019-04-21T02:51:45.876Z,13.80
2019-04-21T02:56:48.192Z,14.30
2019-04-21T03:01:54.463Z,14.50
2019-04-21T03:07:04.678Z,14.07
2019-04-21T03:11:56.016Z,14.43
2019-04-21T03:16:47.192Z,13.90
2019-04-21T03:36:47.635Z,14.67
2019-04-21T03:41:33.812Z,15.27
2019-04-21T03:46:26.283Z,14.40
2019-04-21T03:51:20.321Z,14.07
2019-04-21T03:56:14.803Z,14.87
2019-04-21T04:01:08.115Z,14.93
2019-04-21T04:06:38.723Z,14.33
2019-04-21T04:16:21.536Z,15.07
2019-04-21T04:21:20.653Z,15.27
2019-04-21T04:26:13.081Z,14.33
2019-04-21T04:31:17.957Z,14.60
2019-04-21T04:36:15.666Z,14.57
2019-04-21T04:41:11.659Z,14.53
2019-04-21T04:46:21.460Z,15.40
2019-04-21T04:50:55.453Z,14.80
2019-04-21T04:55:46.078Z,15.73
2019-04-21T05:06:37.177Z,16.03
2019-04-21T05:16:14.401Z,16.67
2019-04-21T05:21:18.890Z,16.37
2019-04-21T05:25:51.157Z,17.27
2019-04-21T05:31:16.375Z,16.70
2019-04-21T05:36:11.338Z,16.82
2019-04-21T05:40:57.629Z,16.77
2019-04-21T05:46:21.332Z,16.37
2019-04-21T05:50:53.691Z,17.73
2019-04-21T05:55:59.528Z,19.47
2019-04-21T06:01:06.481Z,16.90
2019-04-21T06:06:00.374Z,16.00
2019-04-21T06:10:48.774Z,15.40
2019-04-21T06:15:45.526Z,15.77
2019-04-21T06:20:35.413Z,15.10
2019-04-21T06:30:30.880Z,15.13
2019-04-21T06:35:48.319Z,14.27
2019-04-21T06:40:37.312Z,14.70
2019-04-21T06:45:34.860Z,14.00
2019-04-21T06:50:33.628Z,13.03
2019-04-21T06:55:29.284Z,13.03
2019-04-21T07:00:18.489Z,12.67
2019-04-21T07:05:13.622Z,13.30
2019-04-21T07:10:10.390Z,12.95
2019-04-21T07:15:03.540Z,13.13
2019-04-21T07:20:07.169Z,12.28
2019-04-21T07:25:03.331Z,12.58
2019-04-21T07:29:58.565Z,12.18
2019-04-21T07:34:52.254Z,12.82
2019-04-21T07:39:43.934Z,11.95
2019-04-21T07:44:34.963Z,11.55
2019-04-21T07:49:40.178Z,11.48
2019-04-21T07:54:38.526Z,11.50
2019-04-21T07:59:40.464Z,11.12
2019-04-21T08:04:42.450Z,11.90
2019-04-21T08:09:29.793Z,11.38
2019-04-21T08:14:23.909Z,11.25
2019-04-21T08:19:18.758Z,10.30
2019-04-21T08:24:17.222Z,10.80
2019-04-21T08:29:20.391Z,10.30
2019-04-21T08:34:08.376Z,10.53
2019-04-21T08:38:58.289Z,10.50
2019-04-21T08:44:01.695Z,11.20
2019-04-21T08:48:55.306Z,9.50
2019-04-21T08:58:52.598Z,10.53
2019-04-21T09:08:55.425Z,9.13
2019-04-21T09:13:48.973Z,8.43
2019-04-21T09:18:38.327Z,9.20
2019-04-21T09:23:39.617Z,9.85
2019-04-21T09:28:33.115Z,8.08
2019-04-21T09:33:14.058Z,9.28
2019-04-21T09:38:20.829Z,8.95
2019-04-21T09:43:09.433Z,9.05
2019-04-21T09:48:06.384Z,9.05
2019-04-21T09:53:04.046Z,8.45
2019-04-21T09:57:56.932Z,8.23
2019-04-21T10:02:56.732Z,8.10
2019-04-21T10:07:44.384Z,8.28
2019-04-21T10:12:38.490Z,8.75
2019-04-21T10:18:17.472Z,8.28
2019-04-21T10:23:11.852Z,8.45
2019-04-21T10:28:07.275Z,8.38
2019-04-21T10:33:01.426Z,7.60
2019-04-21T10:38:10.470Z,7.75
2019-04-21T10:42:52.257Z,7.40
2019-04-21T10:47:47.241Z,7.45
2019-04-21T10:52:58.744Z,7.67
2019-04-21T10:58:10.843Z,7.85
2019-04-21T11:03:24.850Z,7.72
2019-04-21T11:08:25.750Z,7.78
2019-04-21T11:13:14.988Z,8.20
2019-04-21T11:18:10.233Z,8.20
2019-04-21T11:23:05.836Z,7.83
2019-04-21T11:28:00.835Z,6.97
2019-04-21T11:32:55.298Z,6.62
2019-04-21T11:37:50.313Z,6.95
2019-04-21T11:42:45.975Z,6.42
2019-04-21T11:47:42.661Z,6.22
2019-04-21T11:52:36.994Z,6.40
2019-04-21T11:57:36.480Z,6.58
2019-04-21T12:02:27.643Z,6.50
2019-04-21T12:07:22.857Z,6.33
2019-04-21T12:12:17.073Z,6.50
2019-04-21T12:17:12.111Z,6.35
2019-04-21T12:22:15.650Z,6.55
2019-04-21T12:27:02.337Z,5.53
2019-04-21T12:32:15.982Z,6.17
2019-04-21T12:37:10.973Z,5.90
2019-04-21T12:42:05.096Z,6.20
2019-04-21T12:46:59.060Z,6.65
2019-04-21T12:51:53.547Z,6.20
2019-04-21T12:56:47.734Z,6.40
2019-04-21T13:01:43.044Z,5.97
2019-04-21T13:06:37.442Z,5.40
2019-04-21T13:11:33.039Z,5.40
2019-04-21T13:16:27.644Z,5.17
2019-04-21T13:21:22.466Z,6.30
2019-04-21T13:26:27.781Z,6.47
2019-04-21T13:31:14.047Z,5.50
2019-04-21T13:36:09.601Z,5.05
2019-04-21T13:41:35.164Z,5.15
2019-04-21T13:46:15.492Z,5.10
2019-04-21T13:51:11.088Z,5.90
2019-04-21T13:56:06.821Z,5.42
2019-04-21T14:01:01.252Z,5.87
2019-04-21T14:05:56.227Z,8.60
2019-04-21T14:10:51.490Z,5.50
2019-04-21T14:15:48.284Z,5.10
2019-04-21T14:20:42.866Z,5.72
2019-04-21T14:25:37.533Z,5.50
2019-04-21T14:30:32.545Z,5.25
2019-04-21T14:35:27.153Z,6.83
2019-04-21T14:40:24.361Z,5.78
2019-04-21T14:45:22.966Z,5.50
2019-04-21T14:50:32.466Z,5.42
2019-04-21T14:55:28.430Z,5.60
2019-04-21T15:00:27.125Z,5.25
2019-04-21T15:49:04.946Z,6.47
2019-04-21T15:54:00.599Z,6.55
2019-04-21T15:58:56.804Z,6.20
2019-04-21T16:03:52.423Z,6.20
2019-04-21T16:08:50.636Z,5.83
2019-04-21T16:13:43.630Z,5.55
2019-04-21T16:18:38.407Z,5.50
2019-04-21T16:23:32.912Z,5.60
2019-04-21T16:28:27.204Z,5.83
2019-04-21T16:33:21.211Z,5.95
2019-04-21T16:38:17.565Z,5.60
2019-04-21T16:43:12.262Z,6.08
2019-04-21T16:48:07.360Z,5.90
2019-04-21T16:53:06.192Z,6.20
2019-04-21T16:58:10.115Z,6.55
2019-04-21T17:02:58.783Z,7.37
2019-04-21T17:07:53.120Z,6.85
2019-04-21T17:12:48.195Z,6.97
2019-04-21T17:18:00.743Z,18.07
2019-04-21T17:22:39.571Z,26.50
2019-04-21T17:27:35.512Z,12.85
2019-04-21T17:32:35.631Z,7.95
2019-04-21T17:37:27.318Z,9.58
2019-04-21T17:42:29.770Z,7.00
2019-04-21T17:47:31.365Z,6.70
2019-04-21T17:52:40.235Z,7.50
2019-04-21T17:57:53.011Z,6.78
2019-04-21T18:02:47.906Z,6.92
2019-04-21T18:07:41.924Z,6.40
2019-04-21T18:12:36.053Z,6.65
2019-04-21T18:17:18.458Z,6.83
2019-04-21T18:22:17.609Z,7.20
2019-04-21T18:27:11.723Z,6.85
2019-04-21T18:32:06.353Z,7.25
2019-04-21T18:37:08.069Z,6.95
2019-04-21T18:42:17.543Z,6.85
2019-04-21T18:47:19.848Z,8.05
2019-04-21T18:52:06.930Z,7.53
2019-04-21T18:57:05.486Z,7.25
2019-04-21T19:01:58.569Z,7.45
2019-04-21T19:07:02.589Z,7.10
2019-04-21T19:11:59.591Z,7.78
2019-04-21T19:17:04.286Z,8.58
2019-04-21T19:21:55.881Z,8.30
2019-04-21T19:31:49.718Z,8.23
2019-04-21T19:36:23.906Z,8.28
2019-04-21T19:41:30.952Z,8.03
2019-04-21T19:46:33.323Z,7.90
2019-04-21T19:51:26.230Z,8.03
2019-04-21T19:56:07.830Z,8.85
2019-04-21T20:01:03.438Z,8.90
2019-04-21T20:06:08.169Z,9.03
2019-04-21T20:11:10.139Z,9.70
2019-04-21T20:16:06.850Z,9.43
2019-04-21T20:20:46.107Z,9.75
2019-04-21T20:25:47.215Z,9.88
2019-04-21T20:30:56.018Z,11.38
2019-04-21T20:40:39.638Z,12.00
2019-04-21T20:46:00.430Z,11.28
2019-04-21T20:50:33.394Z,11.35
2019-04-21T20:55:26.515Z,11.53
2019-04-21T21:00:32.198Z,11.80
2019-04-21T21:05:22.112Z,11.53
2019-04-21T21:10:20.413Z,11.10
2019-04-21T21:15:18.335Z,11.45
2019-04-21T21:20:27.873Z,11.10
2019-04-21T21:25:29.071Z,11.97
2019-04-21T21:30:14.569Z,11.33
2019-04-21T21:35:13.197Z,12.60
2019-04-21T21:40:14.246Z,11.88
2019-04-21T21:47:23.999Z,12.63
2019-04-21T21:52:16.828Z,12.40
2019-04-21T21:57:04.843Z,12.53
2019-04-21T22:02:00.220Z,12.90
2019-04-21T22:07:02.492Z,14.68
2019-04-21T22:11:56.495Z,13.28
2019-04-21T22:17:06.447Z,13.85
2019-04-21T22:21:58.075Z,12.93
2019-04-21T22:26:39.104Z,13.25
2019-04-21T22:31:38.890Z,13.95
2019-04-21T22:36:44.408Z,13.13
2019-04-21T22:41:33.756Z,13.95
2019-04-21T22:46:22.427Z,13.95
2019-04-21T22:51:23.732Z,13.83
2019-04-21T22:56:19.801Z,13.75
2019-04-21T23:01:09.614Z,14.85
2019-04-21T23:06:09.720Z,13.50
2019-04-21T23:11:04.907Z,13.30
2019-04-21T23:15:58.761Z,13.13
2019-04-21T23:21:09.320Z,11.88
2019-04-21T23:26:11.306Z,11.03
2019-04-21T23:31:09.812Z,10.08
2019-04-21T23:35:43.657Z,9.60
2019-04-21T23:40:40.732Z,10.18
2019-04-21T23:45:37.745Z,9.15
2019-04-21T23:50:40.816Z,9.80
2019-04-21T23:55:25.270Z,9.50
